sensor_id;sensor_type;location;lat;lon;timestamp;P1;durP1;ratioP1;P2;durP2;ratioP2
17595;SDS011;8916;47.086;15.920;2022-11-13T00:00:29;20.95;;;12.15;;
17595;SDS011;8916;47.086;15.920;2022-11-13T00:03:16;28.17;;;14.25;;
17595;SDS011;8916;47.086;15.920;2022-11-13T00:06:04;24.38;;;13.98;;
17595;SDS011;8916;47.086;15.920;2022-11-13T00:08:52;23.55;;;13.20;;
17595;SDS011;8916;47.086;15.920;2022-11-13T00:11:40;23.98;;;13.70;;
17595;SDS011;8916;47.086;15.920;2022-11-13T00:14:29;24.00;;;13.93;;
17595;SDS011;8916;47.086;15.920;2022-11-13T00:17:17;27.13;;;13.30;;
17595;SDS011;8916;47.086;15.920;2022-11-13T00:20:05;22.50;;;14.63;;
17595;SDS011;8916;47.086;15.920;2022-11-13T00:22:53;30.65;;;15.05;;
17595;SDS011;8916;47.086;15.920;2022-11-13T00:25:41;28.40;;;15.35;;
17595;SDS011;8916;47.086;15.920;2022-11-13T00:28:28;24.70;;;15.02;;
17595;SDS011;8916;47.086;15.920;2022-11-13T00:31:17;22.48;;;13.50;;
17595;SDS011;8916;47.086;15.920;2022-11-13T00:34:05;24.88;;;14.00;;
17595;SDS011;8916;47.086;15.920;2022-11-13T00:37:13;21.80;;;12.45;;
17595;SDS011;8916;47.086;15.920;2022-11-13T00:40:00;28.65;;;14.73;;
17595;SDS011;8916;47.086;15.920;2022-11-13T00:42:48;29.80;;;15.02;;
17595;SDS011;8916;47.086;15.920;2022-11-13T00:45:35;28.13;;;16.52;;
17595;SDS011;8916;47.086;15.920;2022-11-13T00:54:02;28.30;;;14.68;;
17595;SDS011;8916;47.086;15.920;2022-11-13T00:56:50;29.00;;;15.82;;
17595;SDS011;8916;47.086;15.920;2022-11-13T00:59:38;31.58;;;17.88;;
17595;SDS011;8916;47.086;15.920;2022-11-13T01:02:25;32.45;;;17.77;;
17595;SDS011;8916;47.086;15.920;2022-11-13T01:05:14;31.15;;;17.15;;
17595;SDS011;8916;47.086;15.920;2022-11-13T01:08:02;32.58;;;17.13;;
17595;SDS011;8916;47.086;15.920;2022-11-13T01:10:50;32.67;;;16.73;;
17595;SDS011;8916;47.086;15.920;2022-11-13T01:13:39;33.45;;;18.17;;
17595;SDS011;8916;47.086;15.920;2022-11-13T01:16:27;28.48;;;17.05;;
17595;SDS011;8916;47.086;15.920;2022-11-13T01:19:15;28.25;;;15.70;;
17595;SDS011;8916;47.086;15.920;2022-11-13T01:22:04;27.30;;;14.85;;
17595;SDS011;8916;47.086;15.920;2022-11-13T01:24:51;28.73;;;14.38;;
17595;SDS011;8916;47.086;15.920;2022-11-13T01:27:39;29.35;;;13.90;;
17595;SDS011;8916;47.086;15.920;2022-11-13T01:30:26;21.42;;;13.02;;
17595;SDS011;8916;47.086;15.920;2022-11-13T01:33:14;31.80;;;14.02;;
17595;SDS011;8916;47.086;15.920;2022-11-13T01:36:02;33.35;;;15.20;;
17595;SDS011;8916;47.086;15.920;2022-11-13T01:38:55;30.58;;;14.38;;
17595;SDS011;8916;47.086;15.920;2022-11-13T01:41:43;35.28;;;16.17;;
17595;SDS011;8916;47.086;15.920;2022-11-13T01:44:44;42.67;;;17.58;;
17595;SDS011;8916;47.086;15.920;2022-11-13T01:47:35;34.15;;;16.08;;
17595;SDS011;8916;47.086;15.920;2022-11-13T01:50:22;28.02;;;14.88;;
17595;SDS011;8916;47.086;15.920;2022-11-13T01:53:10;27.20;;;14.63;;
17595;SDS011;8916;47.086;15.920;2022-11-13T01:55:59;27.42;;;15.77;;
17595;SDS011;8916;47.086;15.920;2022-11-13T01:58:50;31.73;;;15.60;;
17595;SDS011;8916;47.086;15.920;2022-11-13T02:01:43;25.95;;;15.13;;
17595;SDS011;8916;47.086;15.920;2022-11-13T02:04:32;25.27;;;14.75;;
17595;SDS011;8916;47.086;15.920;2022-11-13T02:07:20;33.05;;;16.40;;
17595;SDS011;8916;47.086;15.920;2022-11-13T02:10:09;24.85;;;13.68;;
17595;SDS011;8916;47.086;15.920;2022-11-13T02:12:57;30.67;;;15.05;;
17595;SDS011;8916;47.086;15.920;2022-11-13T02:15:45;32.08;;;16.00;;
17595;SDS011;8916;47.086;15.920;2022-11-13T02:18:34;28.58;;;16.38;;
17595;SDS011;8916;47.086;15.920;2022-11-13T02:21:26;28.20;;;15.32;;
17595;SDS011;8916;47.086;15.920;2022-11-13T02:24:23;31.70;;;15.02;;
17595;SDS011;8916;47.086;15.920;2022-11-13T02:27:19;34.75;;;15.90;;
17595;SDS011;8916;47.086;15.920;2022-11-13T02:30:13;28.13;;;13.95;;
17595;SDS011;8916;47.086;15.920;2022-11-13T02:33:18;22.92;;;13.20;;
17595;SDS011;8916;47.086;15.920;2022-11-13T02:36:10;21.75;;;13.98;;
17595;SDS011;8916;47.086;15.920;2022-11-13T02:39:00;23.38;;;14.15;;
17595;SDS011;8916;47.086;15.920;2022-11-13T02:41:52;39.08;;;16.35;;
17595;SDS011;8916;47.086;15.920;2022-11-13T02:44:40;35.30;;;17.95;;
17595;SDS011;8916;47.086;15.920;2022-11-13T02:47:27;33.33;;;17.10;;
17595;SDS011;8916;47.086;15.920;2022-11-13T02:50:16;34.22;;;17.30;;
17595;SDS011;8916;47.086;15.920;2022-11-13T02:53:05;28.77;;;15.15;;
17595;SDS011;8916;47.086;15.920;2022-11-13T02:55:53;30.45;;;14.93;;
17595;SDS011;8916;47.086;15.920;2022-11-13T02:58:42;26.92;;;16.27;;
17595;SDS011;8916;47.086;15.920;2022-11-13T03:01:29;27.52;;;16.02;;
17595;SDS011;8916;47.086;15.920;2022-11-13T03:04:17;32.47;;;16.48;;
17595;SDS011;8916;47.086;15.920;2022-11-13T03:07:05;30.92;;;17.65;;
17595;SDS011;8916;47.086;15.920;2022-11-13T03:12:40;27.40;;;14.80;;
17595;SDS011;8916;47.086;15.920;2022-11-13T03:15:29;22.45;;;13.68;;
17595;SDS011;8916;47.086;15.920;2022-11-13T03:18:17;23.33;;;13.55;;
17595;SDS011;8916;47.086;15.920;2022-11-13T03:21:05;23.02;;;13.45;;
17595;SDS011;8916;47.086;15.920;2022-11-13T03:23:55;23.92;;;13.38;;
17595;SDS011;8916;47.086;15.920;2022-11-13T03:26:43;23.40;;;13.30;;
17595;SDS011;8916;47.086;15.920;2022-11-13T03:29:30;24.23;;;12.75;;
17595;SDS011;8916;47.086;15.920;2022-11-13T03:32:20;22.75;;;13.40;;
17595;SDS011;8916;47.086;15.920;2022-11-13T03:35:07;22.75;;;13.30;;
17595;SDS011;8916;47.086;15.920;2022-11-13T03:37:55;23.13;;;13.32;;
17595;SDS011;8916;47.086;15.920;2022-11-13T03:40:42;21.13;;;13.48;;
17595;SDS011;8916;47.086;15.920;2022-11-13T03:43:30;26.17;;;14.07;;
17595;SDS011;8916;47.086;15.920;2022-11-13T03:46:18;25.02;;;14.32;;
17595;SDS011;8916;47.086;15.920;2022-11-13T03:49:07;25.80;;;12.95;;
17595;SDS011;8916;47.086;15.920;2022-11-13T03:51:55;22.27;;;13.43;;
17595;SDS011;8916;47.086;15.920;2022-11-13T03:54:42;23.15;;;13.07;;
17595;SDS011;8916;47.086;15.920;2022-11-13T04:00:20;23.90;;;15.25;;
17595;SDS011;8916;47.086;15.920;2022-11-13T04:03:08;25.70;;;16.27;;
17595;SDS011;8916;47.086;15.920;2022-11-13T04:08:44;21.48;;;13.43;;
17595;SDS011;8916;47.086;15.920;2022-11-13T04:11:32;23.35;;;14.27;;
17595;SDS011;8916;47.086;15.920;2022-11-13T04:17:07;20.80;;;12.95;;
17595;SDS011;8916;47.086;15.920;2022-11-13T04:19:55;21.30;;;13.02;;
17595;SDS011;8916;47.086;15.920;2022-11-13T04:22:44;19.45;;;12.50;;
17595;SDS011;8916;47.086;15.920;2022-11-13T04:25:32;21.52;;;12.18;;
17595;SDS011;8916;47.086;15.920;2022-11-13T04:28:19;19.50;;;11.82;;
17595;SDS011;8916;47.086;15.920;2022-11-13T04:31:07;20.67;;;12.38;;
17595;SDS011;8916;47.086;15.920;2022-11-13T04:33:55;19.23;;;11.82;;
17595;SDS011;8916;47.086;15.920;2022-11-13T04:36:42;21.55;;;12.07;;
17595;SDS011;8916;47.086;15.920;2022-11-13T04:39:31;21.15;;;12.07;;
17595;SDS011;8916;47.086;15.920;2022-11-13T04:42:19;21.42;;;11.95;;
17595;SDS011;8916;47.086;15.920;2022-11-13T04:45:24;18.77;;;11.45;;
17595;SDS011;8916;47.086;15.920;2022-11-13T04:48:12;21.25;;;13.10;;
17595;SDS011;8916;47.086;15.920;2022-11-13T04:51:00;17.92;;;11.23;;
17595;SDS011;8916;47.086;15.920;2022-11-13T04:53:47;15.48;;;10.63;;
17595;SDS011;8916;47.086;15.920;2022-11-13T04:56:36;27.40;;;13.65;;
17595;SDS011;8916;47.086;15.920;2022-11-13T04:59:24;25.35;;;14.57;;
17595;SDS011;8916;47.086;15.920;2022-11-13T05:02:14;42.75;;;18.80;;
17595;SDS011;8916;47.086;15.920;2022-11-13T05:05:01;39.00;;;17.70;;
17595;SDS011;8916;47.086;15.920;2022-11-13T05:07:50;18.98;;;11.88;;
17595;SDS011;8916;47.086;15.920;2022-11-13T05:10:38;21.63;;;12.20;;
17595;SDS011;8916;47.086;15.920;2022-11-13T05:13:27;20.73;;;12.20;;
17595;SDS011;8916;47.086;15.920;2022-11-13T05:16:16;21.48;;;12.07;;
17595;SDS011;8916;47.086;15.920;2022-11-13T05:19:04;21.13;;;11.55;;
17595;SDS011;8916;47.086;15.920;2022-11-13T05:21:52;20.85;;;11.50;;
17595;SDS011;8916;47.086;15.920;2022-11-13T05:24:39;21.25;;;11.25;;
17595;SDS011;8916;47.086;15.920;2022-11-13T05:27:27;17.35;;;11.15;;
17595;SDS011;8916;47.086;15.920;2022-11-13T05:30:16;19.63;;;11.90;;
17595;SDS011;8916;47.086;15.920;2022-11-13T05:33:04;17.10;;;11.15;;
17595;SDS011;8916;47.086;15.920;2022-11-13T05:35:51;17.55;;;11.15;;
17595;SDS011;8916;47.086;15.920;2022-11-13T05:38:40;22.73;;;12.05;;
17595;SDS011;8916;47.086;15.920;2022-11-13T05:41:28;22.02;;;12.32;;
17595;SDS011;8916;47.086;15.920;2022-11-13T05:44:16;19.15;;;12.18;;
17595;SDS011;8916;47.086;15.920;2022-11-13T05:47:05;18.60;;;11.52;;
17595;SDS011;8916;47.086;15.920;2022-11-13T05:49:53;21.38;;;12.18;;
17595;SDS011;8916;47.086;15.920;2022-11-13T05:52:40;20.85;;;11.70;;
17595;SDS011;8916;47.086;15.920;2022-11-13T05:55:30;17.30;;;11.30;;
17595;SDS011;8916;47.086;15.920;2022-11-13T05:58:17;18.00;;;11.48;;
17595;SDS011;8916;47.086;15.920;2022-11-13T06:01:06;17.35;;;11.38;;
17595;SDS011;8916;47.086;15.920;2022-11-13T06:03:57;21.98;;;11.05;;
17595;SDS011;8916;47.086;15.920;2022-11-13T06:06:46;19.38;;;10.65;;
17595;SDS011;8916;47.086;15.920;2022-11-13T06:09:33;21.90;;;11.00;;
17595;SDS011;8916;47.086;15.920;2022-11-13T06:12:26;19.48;;;10.77;;
17595;SDS011;8916;47.086;15.920;2022-11-13T06:15:15;34.65;;;14.65;;
17595;SDS011;8916;47.086;15.920;2022-11-13T06:18:03;25.35;;;12.80;;
17595;SDS011;8916;47.086;15.920;2022-11-13T06:20:52;24.08;;;12.43;;
17595;SDS011;8916;47.086;15.920;2022-11-13T06:23:40;23.98;;;12.18;;
17595;SDS011;8916;47.086;15.920;2022-11-13T06:26:28;23.95;;;12.50;;
17595;SDS011;8916;47.086;15.920;2022-11-13T06:29:19;26.83;;;11.75;;
17595;SDS011;8916;47.086;15.920;2022-11-13T06:32:07;28.13;;;11.95;;
17595;SDS011;8916;47.086;15.920;2022-11-13T06:34:54;19.05;;;11.18;;
17595;SDS011;8916;47.086;15.920;2022-11-13T06:37:43;19.92;;;11.35;;
17595;SDS011;8916;47.086;15.920;2022-11-13T06:40:31;21.20;;;10.50;;
17595;SDS011;8916;47.086;15.920;2022-11-13T06:46:06;18.70;;;11.23;;
17595;SDS011;8916;47.086;15.920;2022-11-13T06:48:57;20.08;;;10.23;;
17595;SDS011;8916;47.086;15.920;2022-11-13T06:51:46;24.27;;;12.13;;
17595;SDS011;8916;47.086;15.920;2022-11-13T06:54:35;26.15;;;11.63;;
17595;SDS011;8916;47.086;15.920;2022-11-13T06:57:22;24.65;;;11.10;;
17595;SDS011;8916;47.086;15.920;2022-11-13T07:00:10;20.40;;;12.00;;
17595;SDS011;8916;47.086;15.920;2022-11-13T07:02:59;24.45;;;12.68;;
17595;SDS011;8916;47.086;15.920;2022-11-13T07:08:35;20.30;;;11.48;;
17595;SDS011;8916;47.086;15.920;2022-11-13T07:11:24;26.73;;;12.27;;
17595;SDS011;8916;47.086;15.920;2022-11-13T07:14:11;23.00;;;11.13;;
17595;SDS011;8916;47.086;15.920;2022-11-13T07:16:59;25.60;;;12.45;;
17595;SDS011;8916;47.086;15.920;2022-11-13T07:19:55;26.67;;;12.07;;
17595;SDS011;8916;47.086;15.920;2022-11-13T07:22:42;25.13;;;13.02;;
17595;SDS011;8916;47.086;15.920;2022-11-13T07:25:30;19.85;;;11.07;;
17595;SDS011;8916;47.086;15.920;2022-11-13T07:28:19;21.38;;;10.77;;
17595;SDS011;8916;47.086;15.920;2022-11-13T07:31:08;17.40;;;10.35;;
17595;SDS011;8916;47.086;15.920;2022-11-13T07:33:57;22.42;;;10.80;;
17595;SDS011;8916;47.086;15.920;2022-11-13T07:39:32;19.60;;;10.80;;
17595;SDS011;8916;47.086;15.920;2022-11-13T07:45:09;17.65;;;11.23;;
17595;SDS011;8916;47.086;15.920;2022-11-13T07:47:57;20.17;;;11.57;;
17595;SDS011;8916;47.086;15.920;2022-11-13T07:50:46;18.10;;;10.52;;
17595;SDS011;8916;47.086;15.920;2022-11-13T07:53:34;17.15;;;11.15;;
17595;SDS011;8916;47.086;15.920;2022-11-13T07:56:23;13.43;;;8.90;;
17595;SDS011;8916;47.086;15.920;2022-11-13T07:59:11;16.80;;;10.32;;
17595;SDS011;8916;47.086;15.920;2022-11-13T08:02:00;19.45;;;10.32;;
17595;SDS011;8916;47.086;15.920;2022-11-13T08:04:48;15.93;;;10.18;;
17595;SDS011;8916;47.086;15.920;2022-11-13T08:07:35;18.55;;;10.38;;
17595;SDS011;8916;47.086;15.920;2022-11-13T08:13:11;20.23;;;11.63;;
17595;SDS011;8916;47.086;15.920;2022-11-13T08:15:59;22.23;;;12.98;;
17595;SDS011;8916;47.086;15.920;2022-11-13T08:18:49;20.90;;;11.95;;
17595;SDS011;8916;47.086;15.920;2022-11-13T08:21:37;18.25;;;11.93;;
17595;SDS011;8916;47.086;15.920;2022-11-13T08:24:24;21.85;;;12.55;;
17595;SDS011;8916;47.086;15.920;2022-11-13T08:27:12;16.48;;;11.02;;
17595;SDS011;8916;47.086;15.920;2022-11-13T08:29:59;18.58;;;11.77;;
17595;SDS011;8916;47.086;15.920;2022-11-13T08:32:47;17.70;;;10.45;;
17595;SDS011;8916;47.086;15.920;2022-11-13T08:35:36;18.65;;;11.32;;
17595;SDS011;8916;47.086;15.920;2022-11-13T08:38:24;18.20;;;11.10;;
17595;SDS011;8916;47.086;15.920;2022-11-13T08:41:13;20.83;;;10.75;;
17595;SDS011;8916;47.086;15.920;2022-11-13T08:44:01;18.00;;;9.93;;
17595;SDS011;8916;47.086;15.920;2022-11-13T08:46:50;16.67;;;10.80;;
17595;SDS011;8916;47.086;15.920;2022-11-13T08:49:38;18.17;;;10.05;;
17595;SDS011;8916;47.086;15.920;2022-11-13T08:52:27;19.42;;;11.10;;
17595;SDS011;8916;47.086;15.920;2022-11-13T08:55:18;15.73;;;9.93;;
17595;SDS011;8916;47.086;15.920;2022-11-13T08:58:05;23.05;;;10.48;;
17595;SDS011;8916;47.086;15.920;2022-11-13T09:00:58;18.58;;;9.75;;
17595;SDS011;8916;47.086;15.920;2022-11-13T09:03:46;16.55;;;9.70;;
17595;SDS011;8916;47.086;15.920;2022-11-13T09:06:34;20.92;;;10.60;;
17595;SDS011;8916;47.086;15.920;2022-11-13T09:09:24;18.08;;;10.80;;
17595;SDS011;8916;47.086;15.920;2022-11-13T09:12:11;17.33;;;10.07;;
17595;SDS011;8916;47.086;15.920;2022-11-13T09:14:59;17.50;;;9.98;;
17595;SDS011;8916;47.086;15.920;2022-11-13T09:17:47;20.90;;;10.90;;
17595;SDS011;8916;47.086;15.920;2022-11-13T09:20:34;22.65;;;10.65;;
17595;SDS011;8916;47.086;15.920;2022-11-13T09:23:22;18.00;;;11.38;;
17595;SDS011;8916;47.086;15.920;2022-11-13T09:26:11;21.40;;;13.07;;
17595;SDS011;8916;47.086;15.920;2022-11-13T09:28:58;20.88;;;14.00;;
17595;SDS011;8916;47.086;15.920;2022-11-13T09:31:46;23.13;;;13.63;;
17595;SDS011;8916;47.086;15.920;2022-11-13T09:34:34;24.67;;;14.40;;
17595;SDS011;8916;47.086;15.920;2022-11-13T09:37:21;22.83;;;13.80;;
17595;SDS011;8916;47.086;15.920;2022-11-13T09:40:10;23.65;;;14.07;;
17595;SDS011;8916;47.086;15.920;2022-11-13T09:43:16;27.05;;;13.93;;
17595;SDS011;8916;47.086;15.920;2022-11-13T09:46:24;25.15;;;14.52;;
17595;SDS011;8916;47.086;15.920;2022-11-13T09:49:23;26.30;;;15.75;;
17595;SDS011;8916;47.086;15.920;2022-11-13T09:52:15;25.67;;;16.02;;
17595;SDS011;8916;47.086;15.920;2022-11-13T09:55:08;26.10;;;16.20;;
17595;SDS011;8916;47.086;15.920;2022-11-13T09:58:00;28.15;;;17.10;;
17595;SDS011;8916;47.086;15.920;2022-11-13T10:00:58;26.17;;;16.92;;
17595;SDS011;8916;47.086;15.920;2022-11-13T10:03:49;29.83;;;17.58;;
17595;SDS011;8916;47.086;15.920;2022-11-13T10:10:15;31.45;;;18.83;;
17595;SDS011;8916;47.086;15.920;2022-11-13T10:13:17;34.15;;;19.35;;
17595;SDS011;8916;47.086;15.920;2022-11-13T10:16:15;32.90;;;19.40;;
17595;SDS011;8916;47.086;15.920;2022-11-13T10:19:16;40.40;;;21.13;;
17595;SDS011;8916;47.086;15.920;2022-11-13T10:22:11;29.73;;;19.35;;
17595;SDS011;8916;47.086;15.920;2022-11-13T10:25:21;31.95;;;18.88;;
17595;SDS011;8916;47.086;15.920;2022-11-13T10:28:13;34.53;;;20.35;;
17595;SDS011;8916;47.086;15.920;2022-11-13T10:31:25;35.25;;;20.30;;
17595;SDS011;8916;47.086;15.920;2022-11-13T10:34:13;37.28;;;21.85;;
17595;SDS011;8916;47.086;15.920;2022-11-13T10:37:09;37.00;;;20.90;;
17595;SDS011;8916;47.086;15.920;2022-11-13T10:40:22;36.40;;;22.02;;
17595;SDS011;8916;47.086;15.920;2022-11-13T10:43:12;37.72;;;22.35;;
17595;SDS011;8916;47.086;15.920;2022-11-13T10:46:03;40.20;;;23.35;;
17595;SDS011;8916;47.086;15.920;2022-11-13T10:48:53;35.78;;;23.52;;
17595;SDS011;8916;47.086;15.920;2022-11-13T10:51:41;36.80;;;22.17;;
17595;SDS011;8916;47.086;15.920;2022-11-13T10:54:29;40.28;;;23.52;;
17595;SDS011;8916;47.086;15.920;2022-11-13T10:57:23;38.40;;;23.30;;
17595;SDS011;8916;47.086;15.920;2022-11-13T11:00:19;40.28;;;23.83;;
17595;SDS011;8916;47.086;15.920;2022-11-13T11:03:13;40.20;;;24.33;;
17595;SDS011;8916;47.086;15.920;2022-11-13T11:06:04;36.92;;;23.38;;
17595;SDS011;8916;47.086;15.920;2022-11-13T11:09:03;39.13;;;24.05;;
17595;SDS011;8916;47.086;15.920;2022-11-13T11:11:57;37.90;;;23.80;;
17595;SDS011;8916;47.086;15.920;2022-11-13T11:15:17;41.97;;;24.58;;
17595;SDS011;8916;47.086;15.920;2022-11-13T11:18:16;42.42;;;25.50;;
17595;SDS011;8916;47.086;15.920;2022-11-13T11:21:14;44.90;;;26.23;;
17595;SDS011;8916;47.086;15.920;2022-11-13T11:24:07;40.40;;;24.83;;
17595;SDS011;8916;47.086;15.920;2022-11-13T11:27:00;40.67;;;25.17;;
17595;SDS011;8916;47.086;15.920;2022-11-13T11:29:57;39.53;;;24.33;;
17595;SDS011;8916;47.086;15.920;2022-11-13T11:32:52;42.10;;;24.50;;
17595;SDS011;8916;47.086;15.920;2022-11-13T11:35:50;41.28;;;25.70;;
17595;SDS011;8916;47.086;15.920;2022-11-13T11:38:46;45.15;;;26.90;;
17595;SDS011;8916;47.086;15.920;2022-11-13T11:41:43;46.65;;;28.02;;
17595;SDS011;8916;47.086;15.920;2022-11-13T11:44:43;44.75;;;27.48;;
17595;SDS011;8916;47.086;15.920;2022-11-13T11:47:47;48.20;;;28.90;;
17595;SDS011;8916;47.086;15.920;2022-11-13T11:50:35;48.15;;;28.13;;
17595;SDS011;8916;47.086;15.920;2022-11-13T11:53:33;50.00;;;27.13;;
17595;SDS011;8916;47.086;15.920;2022-11-13T11:56:33;35.80;;;23.00;;
17595;SDS011;8916;47.086;15.920;2022-11-13T12:03:03;39.28;;;21.20;;
17595;SDS011;8916;47.086;15.920;2022-11-13T12:06:24;41.75;;;25.65;;
17595;SDS011;8916;47.086;15.920;2022-11-13T12:09:28;36.47;;;22.73;;
17595;SDS011;8916;47.086;15.920;2022-11-13T12:12:24;30.67;;;19.35;;
17595;SDS011;8916;47.086;15.920;2022-11-13T12:15:29;27.60;;;16.60;;
17595;SDS011;8916;47.086;15.920;2022-11-13T12:18:28;33.45;;;19.83;;
17595;SDS011;8916;47.086;15.920;2022-11-13T12:21:36;29.60;;;18.73;;
17595;SDS011;8916;47.086;15.920;2022-11-13T12:24:52;30.33;;;19.83;;
17595;SDS011;8916;47.086;15.920;2022-11-13T12:28:05;31.85;;;19.15;;
17595;SDS011;8916;47.086;15.920;2022-11-13T12:31:05;27.33;;;17.70;;
17595;SDS011;8916;47.086;15.920;2022-11-13T12:34:08;25.33;;;16.35;;
17595;SDS011;8916;47.086;15.920;2022-11-13T12:37:08;31.48;;;16.63;;
17595;SDS011;8916;47.086;15.920;2022-11-13T12:40:02;27.77;;;16.42;;
17595;SDS011;8916;47.086;15.920;2022-11-13T12:42:55;25.85;;;15.52;;
17595;SDS011;8916;47.086;15.920;2022-11-13T12:45:59;26.83;;;14.80;;
17595;SDS011;8916;47.086;15.920;2022-11-13T12:48:51;24.75;;;15.60;;
17595;SDS011;8916;47.086;15.920;2022-11-13T12:51:39;23.45;;;14.15;;
17595;SDS011;8916;47.086;15.920;2022-11-13T12:54:28;21.60;;;13.80;;
17595;SDS011;8916;47.086;15.920;2022-11-13T12:57:21;20.42;;;13.48;;
17595;SDS011;8916;47.086;15.920;2022-11-13T13:00:22;22.85;;;14.93;;
17595;SDS011;8916;47.086;15.920;2022-11-13T13:03:30;21.23;;;14.30;;
17595;SDS011;8916;47.086;15.920;2022-11-13T13:06:38;23.15;;;13.68;;
17595;SDS011;8916;47.086;15.920;2022-11-13T13:09:42;21.45;;;13.75;;
17595;SDS011;8916;47.086;15.920;2022-11-13T13:12:43;19.75;;;12.57;;
17595;SDS011;8916;47.086;15.920;2022-11-13T13:15:42;26.00;;;13.65;;
17595;SDS011;8916;47.086;15.920;2022-11-13T13:18:34;18.45;;;13.75;;
17595;SDS011;8916;47.086;15.920;2022-11-13T13:21:23;20.25;;;14.40;;
17595;SDS011;8916;47.086;15.920;2022-11-13T13:24:24;22.70;;;15.70;;
17595;SDS011;8916;47.086;15.920;2022-11-13T13:27:20;21.08;;;13.40;;
17595;SDS011;8916;47.086;15.920;2022-11-13T13:30:17;16.38;;;12.25;;
17595;SDS011;8916;47.086;15.920;2022-11-13T13:33:14;19.80;;;12.27;;
17595;SDS011;8916;47.086;15.920;2022-11-13T13:36:11;17.52;;;10.45;;
17595;SDS011;8916;47.086;15.920;2022-11-13T13:39:16;14.18;;;10.65;;
17595;SDS011;8916;47.086;15.920;2022-11-13T13:42:24;14.30;;;10.27;;
17595;SDS011;8916;47.086;15.920;2022-11-13T13:45:30;19.83;;;12.43;;
17595;SDS011;8916;47.086;15.920;2022-11-13T13:48:31;20.77;;;12.98;;
17595;SDS011;8916;47.086;15.920;2022-11-13T13:51:24;17.27;;;12.18;;
17595;SDS011;8916;47.086;15.920;2022-11-13T13:54:15;13.77;;;9.43;;
17595;SDS011;8916;47.086;15.920;2022-11-13T13:57:09;15.80;;;9.70;;
17595;SDS011;8916;47.086;15.920;2022-11-13T14:00:00;14.45;;;8.82;;
17595;SDS011;8916;47.086;15.920;2022-11-13T14:02:49;13.02;;;9.07;;
17595;SDS011;8916;47.086;15.920;2022-11-13T14:05:40;13.52;;;9.45;;
17595;SDS011;8916;47.086;15.920;2022-11-13T14:08:28;12.57;;;8.50;;
17595;SDS011;8916;47.086;15.920;2022-11-13T14:11:18;12.98;;;9.02;;
17595;SDS011;8916;47.086;15.920;2022-11-13T14:14:13;14.02;;;10.43;;
17595;SDS011;8916;47.086;15.920;2022-11-13T14:17:07;12.73;;;9.75;;
17595;SDS011;8916;47.086;15.920;2022-11-13T14:19:56;14.07;;;9.60;;
17595;SDS011;8916;47.086;15.920;2022-11-13T14:22:48;13.25;;;9.38;;
17595;SDS011;8916;47.086;15.920;2022-11-13T14:25:41;14.02;;;9.50;;
17595;SDS011;8916;47.086;15.920;2022-11-13T14:28:32;15.43;;;10.70;;
17595;SDS011;8916;47.086;15.920;2022-11-13T14:31:33;13.55;;;10.45;;
17595;SDS011;8916;47.086;15.920;2022-11-13T14:34:21;12.70;;;10.00;;
17595;SDS011;8916;47.086;15.920;2022-11-13T14:37:14;14.70;;;10.55;;
17595;SDS011;8916;47.086;15.920;2022-11-13T14:40:18;14.15;;;9.85;;
17595;SDS011;8916;47.086;15.920;2022-11-13T14:43:13;16.63;;;9.88;;
17595;SDS011;8916;47.086;15.920;2022-11-13T14:46:24;14.95;;;10.52;;
17595;SDS011;8916;47.086;15.920;2022-11-13T14:49:24;15.38;;;10.50;;
17595;SDS011;8916;47.086;15.920;2022-11-13T14:52:21;18.48;;;12.57;;
17595;SDS011;8916;47.086;15.920;2022-11-13T14:55:20;21.80;;;14.23;;
17595;SDS011;8916;47.086;15.920;2022-11-13T14:58:11;20.77;;;13.88;;
17595;SDS011;8916;47.086;15.920;2022-11-13T15:01:10;22.70;;;16.15;;
17595;SDS011;8916;47.086;15.920;2022-11-13T15:04:02;23.33;;;15.50;;
17595;SDS011;8916;47.086;15.920;2022-11-13T15:06:51;25.88;;;16.58;;
17595;SDS011;8916;47.086;15.920;2022-11-13T15:09:45;26.60;;;16.50;;
17595;SDS011;8916;47.086;15.920;2022-11-13T15:12:35;26.70;;;16.55;;
17595;SDS011;8916;47.086;15.920;2022-11-13T15:15:24;26.13;;;17.17;;
17595;SDS011;8916;47.086;15.920;2022-11-13T15:18:16;28.92;;;16.95;;
17595;SDS011;8916;47.086;15.920;2022-11-13T15:21:05;27.73;;;16.10;;
17595;SDS011;8916;47.086;15.920;2022-11-13T15:23:52;25.42;;;15.73;;
17595;SDS011;8916;47.086;15.920;2022-11-13T15:26:40;32.58;;;16.02;;
17595;SDS011;8916;47.086;15.920;2022-11-13T15:29:29;26.05;;;15.05;;
17595;SDS011;8916;47.086;15.920;2022-11-13T15:32:16;29.58;;;17.40;;
17595;SDS011;8916;47.086;15.920;2022-11-13T15:35:05;27.73;;;17.33;;
17595;SDS011;8916;47.086;15.920;2022-11-13T15:37:59;25.58;;;16.33;;
17595;SDS011;8916;47.086;15.920;2022-11-13T15:40:47;28.52;;;16.02;;
17595;SDS011;8916;47.086;15.920;2022-11-13T15:46:24;25.85;;;15.70;;
17595;SDS011;8916;47.086;15.920;2022-11-13T15:49:11;28.10;;;15.20;;
17595;SDS011;8916;47.086;15.920;2022-11-13T15:51:59;23.38;;;14.65;;
17595;SDS011;8916;47.086;15.920;2022-11-13T15:54:46;29.15;;;15.48;;
17595;SDS011;8916;47.086;15.920;2022-11-13T15:57:35;32.42;;;15.57;;
17595;SDS011;8916;47.086;15.920;2022-11-13T16:03:13;23.52;;;13.07;;
17595;SDS011;8916;47.086;15.920;2022-11-13T16:06:01;19.10;;;12.98;;
17595;SDS011;8916;47.086;15.920;2022-11-13T16:11:37;27.55;;;16.23;;
17595;SDS011;8916;47.086;15.920;2022-11-13T16:14:25;26.05;;;16.15;;
17595;SDS011;8916;47.086;15.920;2022-11-13T16:17:14;24.83;;;15.82;;
17595;SDS011;8916;47.086;15.920;2022-11-13T16:20:07;25.00;;;16.63;;
17595;SDS011;8916;47.086;15.920;2022-11-13T16:22:59;28.02;;;17.08;;
17595;SDS011;8916;47.086;15.920;2022-11-13T16:25:47;23.00;;;14.73;;
17595;SDS011;8916;47.086;15.920;2022-11-13T16:28:36;23.80;;;14.82;;
17595;SDS011;8916;47.086;15.920;2022-11-13T16:31:44;26.70;;;15.15;;
17595;SDS011;8916;47.086;15.920;2022-11-13T16:34:34;22.80;;;13.85;;
17595;SDS011;8916;47.086;15.920;2022-11-13T16:37:25;22.83;;;15.13;;
17595;SDS011;8916;47.086;15.920;2022-11-13T16:40:15;26.15;;;17.15;;
17595;SDS011;8916;47.086;15.920;2022-11-13T16:43:06;33.15;;;20.77;;
17595;SDS011;8916;47.086;15.920;2022-11-13T16:45:53;52.00;;;27.65;;
17595;SDS011;8916;47.086;15.920;2022-11-13T16:48:41;55.05;;;28.67;;
17595;SDS011;8916;47.086;15.920;2022-11-13T16:51:29;55.15;;;30.02;;
17595;SDS011;8916;47.086;15.920;2022-11-13T16:54:18;33.60;;;19.20;;
17595;SDS011;8916;47.086;15.920;2022-11-13T16:57:08;26.98;;;17.17;;
17595;SDS011;8916;47.086;15.920;2022-11-13T16:59:56;21.63;;;14.85;;
17595;SDS011;8916;47.086;15.920;2022-11-13T17:02:44;23.08;;;15.63;;
17595;SDS011;8916;47.086;15.920;2022-11-13T17:05:32;27.15;;;17.05;;
17595;SDS011;8916;47.086;15.920;2022-11-13T17:08:19;37.42;;;20.98;;
17595;SDS011;8916;47.086;15.920;2022-11-13T17:11:08;35.53;;;21.00;;
17595;SDS011;8916;47.086;15.920;2022-11-13T17:14:00;31.20;;;19.35;;
17595;SDS011;8916;47.086;15.920;2022-11-13T17:16:49;29.88;;;18.38;;
17595;SDS011;8916;47.086;15.920;2022-11-13T17:22:28;38.88;;;22.75;;
17595;SDS011;8916;47.086;15.920;2022-11-13T17:25:16;47.97;;;28.98;;
17595;SDS011;8916;47.086;15.920;2022-11-13T17:28:07;40.60;;;24.23;;
17595;SDS011;8916;47.086;15.920;2022-11-13T17:30:58;37.35;;;22.65;;
17595;SDS011;8916;47.086;15.920;2022-11-13T17:33:50;36.25;;;20.92;;